Flight Track Log - Related Links

Times and Time Zones

All times are in EDT time to prevent confusion due to time zone crossing. See the N580HS flight status page for this flight to view local times or setup timezone preferences in your user account.

Time Position Orientation Groundspeed Altitude Reporting Facility
EDT Latitude Longitude Course Direction KTS MPH feet Rate Location/Type
Wed 11:55:43 PM 33.9742 -98.5281 168° South 180 207 2,800  Level Fort Worth Center
Wed 11:56:50 PM 33.9200 -98.5147 168° South 180 207 4,100 1,266 Climbing Fort Worth Center
Wed 11:57:51 PM 33.8639 -98.4992 167° South 187 215 5,500 1,714 Climbing Fort Worth Center
Wed 11:58:42 PM 33.8286 -98.4786 154° Southeast 257 296 7,300 2,000 Climbing Fort Worth Center
Wed 11:59:42 PM 33.7911 -98.4606 158° South 226 260 9,200 1,650 Climbing Fort Worth Center
Thu 12:00:42 AM 33.7475 -98.4428 161° South 179 206 10,600 1,200 Climbing Fort Worth Center
Thu 12:01:42 AM 33.7017 -98.4222 160° South 168 193 11,600 1,050 Climbing Fort Worth Center
Thu 12:02:42 AM 33.6497 -98.3942 156° South 179 206 12,700 1,150 Climbing Fort Worth Center
Thu 12:03:42 AM 33.6019 -98.3761 163° South 189 217 13,900 1,100 Climbing Fort Worth Center
Thu 12:04:42 AM 33.5561 -98.3581 162° South 189 217 14,900 1,100 Climbing Fort Worth Center
Thu 12:05:42 AM 33.4981 -98.3328 160° South 194 223 16,100 700 Climbing Fort Worth Center
Thu 12:06:42 AM 33.4397 -98.3072 160° South 222 255 16,300  Climbing Fort Worth Center
Thu 12:07:42 AM 33.3628 -98.2714 159° South 262 302 16,100 -320 Descending Fort Worth Center
Thu 12:07:57 AM 33.3419 -98.2689 174° South 275 316 15,900  Descending Fort Worth Center
Thu 12:08:42 AM 33.2981 -98.2461 157° South 277 319 16,100  Climbing Fort Worth Center
Thu 12:08:57 AM 33.2669 -98.2333 161° South 279 321 15,900 700 Descending Fort Worth Center
Thu 12:09:42 AM 33.2169 -98.2081 157° South 282 325 16,800 984 Climbing Fort Worth Center
Thu 12:09:58 AM 33.2003 -98.2103 186° South 264 304 16,900 1,100 Climbing Fort Worth Center
Thu 12:10:42 AM 33.1628 -98.1853 151° Southeast 255 293 17,900 1,475 Climbing Fort Worth Center
Thu 12:10:59 AM 33.1378 -98.1775 165° South 231 266 18,400 1,100 Climbing Fort Worth Center
Thu 12:11:42 AM 33.0983 -98.1575 157° South 232 267 19,000 900 Climbing Fort Worth Center
Thu 12:11:59 AM 33.0794 -98.1547 173° South 225 259 19,300 800 Climbing Fort Worth Center
Thu 12:12:42 AM 33.0419 -98.1372 159° South 227 261 19,800 787 Climbing Fort Worth Center
Thu 12:13:00 AM 33.0172 -98.1269 161° South 230 265 20,100 769 Climbing Fort Worth Center
Thu 12:14:00 AM 32.9567 -98.1042 162° South 236 272 20,800 529 Climbing Fort Worth Center
Thu 12:14:42 AM 32.9172 -98.0817 154° Southeast 233 268 21,000 197 Climbing Fort Worth Center
Thu 12:15:01 AM 32.8900 -98.0714 162° South 247 284 21,000  Level Fort Worth Center
Thu 12:15:42 AM 32.8422 -98.0489 158° South 248 285 21,000  Level Fort Worth Center
Thu 12:16:42 AM 32.7756 -98.0211 161° South 270 311 21,000  Level Fort Worth Center
Thu 12:17:42 AM 32.6900 -97.9958 166° South 282 325 21,000  Level Fort Worth Center
Thu 12:18:42 AM 32.6192 -97.9881 175° South 287 330 21,000  Level Fort Worth Center
Thu 12:19:42 AM 32.5314 -97.9803 176° South 292 336 21,000  Level Fort Worth Center
Thu 12:20:42 AM 32.4606 -97.9722 175° South 286 329 21,000  Level Fort Worth Center
Thu 12:21:42 AM 32.3728 -97.9619 174° South 291 335 21,000  Level Fort Worth Center
Thu 12:22:42 AM 32.3019 -97.9567 176° South 291 335 21,000  Level Fort Worth Center
Thu 12:23:42 AM 32.2164 -97.9461 174° South 291 335 21,000  Level Fort Worth Center
Thu 12:24:42 AM 32.1475 -97.9383 175° South 291 335 21,000  Level Fort Worth Center
Thu 12:25:42 AM 32.0661 -97.9306 175° South 281 323 21,000  Level Fort Worth Center
Thu 12:26:42 AM 31.9972 -97.9228 175° South 276 318 21,000  Level Fort Worth Center
Thu 12:27:42 AM 31.9158 -97.9128 174° South 276 318 21,000  Level Fort Worth Center
Thu 12:28:42 AM 31.8408 -97.9050 175° South 271 312 21,000  Level Fort Worth Center
Thu 12:29:42 AM 31.7656 -97.8972 175° South 276 318 21,000  Level Fort Worth Center
Thu 12:31:33 AM 31.6308 -97.8825 175° South 269 310 21,000  Level Houston Center
Thu 12:32:33 AM 31.5556 -97.8761 176° South 270 311 21,000  Level Houston Center
Thu 12:33:33 AM 31.4819 -97.8686 175° South 264 304 21,000  Level Houston Center
Thu 12:34:34 AM 31.4086 -97.8594 174° South 263 303 21,000  Level Houston Center
Thu 12:35:34 AM 31.3372 -97.8403 167° South 262 302 21,000  Level Houston Center
Thu 12:36:34 AM 31.2647 -97.8206 167° South 264 304 21,000  Level Houston Center
Thu 12:37:35 AM 31.1942 -97.8017 167° South 260 299 21,000  Level Houston Center
Thu 12:38:35 AM 31.1206 -97.7922 174° South 262 302 21,000  Level Houston Center
Thu 12:39:35 AM 31.0444 -97.7867 176° South 270 311 21,000  Level Houston Center
Thu 12:40:36 AM 30.9692 -97.7789 175° South 269 310 21,000  Level Houston Center
Thu 12:41:36 AM 30.8939 -97.7719 175° South 271 312 21,000  Level Houston Center
Thu 12:42:36 AM 30.8178 -97.7664 176° South 272 313 21,000  Level Houston Center
Thu 12:43:37 AM 30.7419 -97.7586 175° South 272 313 21,000  Level Houston Center
Thu 12:44:37 AM 30.6656 -97.7525 176° South 273 314 21,000  Level Houston Center
Thu 12:45:37 AM 30.5886 -97.7456 176° South 273 314 21,000  Level Houston Center
Thu 12:46:38 AM 30.5125 -97.7389 176° South 272 313 21,000  Level Houston Center
Thu 12:47:38 AM 30.4361 -97.7314 175° South 272 313 21,000  Level Houston Center
Thu 12:48:38 AM 30.3619 -97.7250 176° South 267 307 21,000  Level Houston Center
Thu 12:49:39 AM 30.2869 -97.7189 176° South 267 307 21,000  Level Houston Center
Thu 12:50:39 AM 30.2111 -97.7119 175° South 270 311 21,000  Level Houston Center
Thu 12:51:39 AM 30.1478 -97.7061 175° South 271 312 21,000  Level Houston Center
Thu 12:52:39 AM 30.0592 -97.6989 176° South 268 308 21,000  Level Houston Center
Thu 12:53:40 AM 29.9856 -97.6919 175° South 266 306 21,000  Level Houston Center
Thu 12:54:40 AM 29.9131 -97.6856 176° South 262 302 21,000  Level Houston Center
Thu 12:55:40 AM 29.8397 -97.6808 177° South 263 303 21,000  Level Houston Center
Thu 12:56:40 AM 29.7692 -97.6725 174° South 264 304 21,000  Level Houston Center
Thu 12:57:41 AM 29.6964 -97.6669 176° South 263 303 21,000  Level Houston Center
Thu 12:58:41 AM 29.6236 -97.6603 175° South 264 304 21,000  Level Houston Center
Thu 12:59:41 AM 29.5511 -97.6542 176° South 262 302 21,000  Level Houston Center
Thu 01:00:41 AM 29.4772 -97.6478 176° South 266 306 21,000  Level Houston Center
Thu 01:01:41 AM 29.4031 -97.6422 176° South 267 307 21,000  Level Houston Center
Thu 01:02:42 AM 29.3300 -97.6358 176° South 266 306 21,000  Level Houston Center
Thu 01:03:42 AM 29.2553 -97.6289 175° South 269 310 21,000  Level Houston Center
Thu 01:04:42 AM 29.1811 -97.6233 176° South 267 307 21,000  Level Houston Center
Thu 01:05:44 AM 29.1058 -97.6164 175° South 271 312 21,000  Level Houston Center
Thu 01:06:44 AM 29.0317 -97.6094 175° South 270 311 21,000 -100 Level Houston Center
Thu 01:07:44 AM 28.9578 -97.6028 175° South 269 310 20,800 -750 Descending Houston Center
Thu 01:08:44 AM 28.8817 -97.5967 176° South 274 315 19,500 -1,300 Descending Houston Center
Thu 01:09:44 AM 28.8033 -97.5908 176° South 281 323 18,200 -1,240 Descending Houston Center
Thu 01:10:45 AM 28.7247 -97.5844 176° South 282 325 17,000 -1,240 Descending Houston Center
Thu 01:11:45 AM 28.6447 -97.5775 176° South 286 329 15,700 -1,300 Descending Houston Center
Thu 01:12:45 AM 28.5636 -97.5694 175° South 290 334 14,400 -1,444 Descending Houston Center
Thu 01:13:33 AM 28.4872 -97.5636 176° South 289 333 13,100 -1,462 Descending Houston Center
Thu 01:14:03 AM 28.4492 -97.5594 175° South 287 330 12,500 -1,083 Descending Houston Center
Thu 01:14:45 AM 28.4039 -97.5561 176° South 288 331 11,800 -1,279 Descending Houston Center
Thu 01:15:04 AM 28.3653 -97.5636 190° South 283 326 11,200 -1,300 Descending Houston Center
Thu 01:15:45 AM 28.3267 -97.5714 190° South 286 329 10,500 -1,300 Descending Houston Center
Thu 01:16:04 AM 28.2911 -97.5786 190° South 279 321 9,900 -1,180 Descending Houston Center
Thu 01:16:46 AM 28.2511 -97.5869 190° South 277 319 9,300 -984 Descending Houston Center
Thu 01:17:05 AM 28.2131 -97.5964 192° South 274 315 8,900 -900 Descending Houston Center
Thu 01:17:46 AM 28.1764 -97.6014 187° South 275 316 8,400 -885 Descending Houston Center
Thu 01:18:06 AM 28.1431 -97.6108 194° South 267 307 8,000 -900 Descending Houston Center
Thu 01:18:46 AM 28.1033 -97.6161 187° South 268 308 7,500 -900 Descending Houston Center
Thu 01:19:06 AM 28.0669 -97.6258 193° South 261 300 7,100 -400 Descending Houston Center
Thu 01:19:46 AM 28.0325 -97.6308 187° South 262 302 7,100 -98 Level Houston Center
Thu 01:20:07 AM 27.9989 -97.6400 194° South 256 295 7,000 -1,100 Descending Houston Center
Thu 01:20:46 AM 27.9647 -97.6444 187° South 254 292 6,000 -2,300 Descending Houston Center
Thu 01:21:07 AM 27.9328 -97.6511 190° South 233 268 4,700 -2,754 Descending Houston Center
Thu 01:21:47 AM 27.8978 -97.6392 163° South 232 267 3,200 -2,361 Descending Houston Center
Thu 01:22:08 AM 27.8733 -97.6261 155° Southeast 213 245 2,300 -1,200 Descending Houston Center
Thu 01:22:47 AM 27.8536 -97.6017 132° Southeast 208 239 2,000 -295 Descending Houston Center
Thu 01:23:09 AM 27.8464 -97.5897 124° Southeast 128 147 2,000 -512 Level Houston Center
Thu 01:24:09 AM 27.8225 -97.5644 137° Southeast 96 110 1,300 -595 Descending Houston Center
Thu 01:25:10 AM 27.8011 -97.5414 136° Southeast 104 120 800 -492 Descending Houston Center
Thu 01:27:00 AM 27.7667 -97.5000 148° Southeast  Level FlightAware Approximate
Thu 01:34:00 AM 27.7704 -97.5012 148° Southeast  Level Estimated

Login

Don't have an account? Register now (free) for customized features, flight alerts, and more!